Time;durP1;ratioP1;P1;durP2;ratioP2;P2;SDS_P1;SDS_P2;PMS_P1;PMS_P2;Temp;Humidity;BMP_temperature;BMP_pressure;BME280_temperature;BME280_humidity;BME280_pressure;Samples;Min_cycle;Max_cycle;Signal;HPM_P1;HPM_P2
2023/12/10 00:01:49;;;;;;;;;;;;;;;;;;5094461;28;19909;-75
2023/12/10 00:04:14;;;;;;;;;;;;;;;;;;5095986;28;19908;-75
2023/12/10 00:06:39;;;;;;;;;;;;;;;;;;5095791;28;19991;-75
2023/12/10 00:09:04;;;;;;;;;;;;;;;;;;5095865;28;19999;-75
2023/12/10 00:11:30;;;;;;;;;;;;;;;;;;5096132;28;19908;-75
2023/12/10 00:13:55;;;;;;;;;;;;;;;;;;5095786;28;19966;-75
2023/12/10 00:16:20;;;;;;;;;;;;;;;;;;5094245;28;19951;-75
2023/12/10 00:18:45;;;;;;;;;;;;;;;;;;5095593;28;20274;-75
2023/12/10 00:21:11;;;;;;;;;;;;;;;;;;5095474;28;19954;-75
2023/12/10 00:23:36;;;;;;;;;;;;;;;;;;5094208;28;19961;-75
2023/12/10 00:26:01;;;;;;;;;;;;;;;;;;5095985;28;19908;-75
2023/12/10 00:28:26;;;;;;;;;;;;;;;;;;5095366;28;20289;-75
2023/12/10 00:30:51;;;;;;;;;;;;;;;;;;5095178;28;20273;-75
2023/12/10 00:33:16;;;;;;;;;;;;;;;;;;5095360;28;20278;-75
2023/12/10 00:35:41;;;;;;;;;;;;;;;;;;5095266;28;19938;-75
2023/12/10 00:38:06;;;;;;;;;;;;;;;;;;5094220;28;20250;-75
2023/12/10 00:40:31;;;;;;;;;;;;;;;;;;5093708;28;19908;-75
2023/12/10 00:42:58;;;;;;;;;;;;;;;;;;5095099;28;19912;-75
2023/12/10 00:45:23;;;;;;;;;;;;;;;;;;5093790;28;19908;-75
2023/12/10 00:47:48;;;;;;;;;;;;;;;;;;5094970;28;20339;-75
2023/12/10 00:50:13;;;;;;;;;;;;;;;;;;5094825;28;19908;-74
2023/12/10 00:52:38;;;;;;;;;;;;;;;;;;5094883;28;19922;-75
2023/12/10 00:55:04;;;;;;;;;;;;;;;;;;5094869;28;19923;-75
2023/12/10 00:57:29;;;;;;;;;;;;;;;;;;5093556;28;19908;-75
2023/12/10 00:59:54;;;;;;;;;;;;;;;;;;5094737;28;19955;-75
2023/12/10 01:02:19;;;;;;;;;;;;;;;;;;5094639;28;19939;-75
2023/12/10 01:04:44;;;;;;;;;;;;;;;;;;5094756;28;19915;-75
2023/12/10 01:07:11;;;;;;;;;;;;;;;;;;5094638;28;19908;-75
2023/12/10 01:09:38;;;;;;;;;;;;;;;;;;5094881;28;19908;-75
2023/12/10 01:12:03;;;;;;;;;;;;;;;;;;5093447;28;19908;-75
2023/12/10 01:14:29;;;;;;;;;;;;;;;;;;5095016;28;19919;-75
2023/12/10 01:16:54;;;;;;;;;;;;;;;;;;5085993;28;19941;-75
2023/12/10 01:19:19;;;;;;;;;;;;;;;;;;5094300;28;19995;-75
2023/12/10 01:21:45;;;;;;;;;;;;;;;;;;5093046;28;20261;-75
2023/12/10 01:24:10;;;;;;;;;;;;;;;;;;5094448;28;20358;-75
2023/12/10 01:26:35;;;;;;;;;;;;;;;;;;5094301;28;19939;-75
2023/12/10 01:29:00;;;;;;;;;;;;;;;;;;5094217;28;20356;-75
2023/12/10 01:31:26;;;;;;;;;;;;;;;;;;5092842;28;19908;-75
2023/12/10 01:33:51;;;;;;;;;;;;;;;;;;5094139;28;19908;-75
2023/12/10 01:36:16;;;;;;;;;;;;;;;;;;5094134;28;19915;-75
2023/12/10 01:38:41;;;;;;;;;;;;;;;;;;5093989;28;20421;-75
2023/12/10 01:41:06;;;;;;;;;;;;;;;;;;5094071;28;19908;-75
2023/12/10 01:43:32;;;;;;;;;;;;;;;;;;5090746;28;19908;-75
2023/12/10 01:45:57;;;;;;;;;;;;;;;;;;5093641;28;19908;-75
2023/12/10 01:48:23;;;;;;;;;;;;;;;;;;5093697;28;20377;-75
2023/12/10 01:50:48;;;;;;;;;;;;;;;;;;5093634;28;19908;-75
2023/12/10 01:53:13;;;;;;;;;;;;;;;;;;5091887;28;19927;-75
2023/12/10 01:55:38;;;;;;;;;;;;;;;;;;5093477;28;19964;-75
2023/12/10 01:58:06;;;;;;;;;;;;;;;;;;5092424;28;20357;-75
2023/12/10 02:00:32;;;;;;;;;;;;;;;;;;5093506;28;20011;-75
2023/12/10 02:02:57;;;;;;;;;;;;;;;;;;5093567;28;19955;-75
2023/12/10 02:05:22;;;;;;;;;;;;;;;;;;5090880;28;19961;-75
2023/12/10 02:07:47;;;;;;;;;;;;;;;;;;5092072;28;19908;-75
2023/12/10 02:10:13;;;;;;;;;;;;;;;;;;5092058;28;19908;-75
2023/12/10 02:12:38;;;;;;;;;;;;;;;;;;5092272;28;20388;-75
2023/12/10 02:15:04;;;;;;;;;;;;;;;;;;5093832;28;19977;-75
2023/12/10 02:17:29;;;;;;;;;;;;;;;;;;5093244;28;19936;-75
2023/12/10 02:19:54;;;;;;;;;;;;;;;;;;5093195;28;19960;-75
2023/12/10 02:22:19;;;;;;;;;;;;;;;;;;5092958;28;19952;-75
2023/12/10 02:24:44;;;;;;;;;;;;;;;;;;5093202;28;20018;-75
2023/12/10 02:27:09;;;;;;;;;;;;;;;;;;5092007;28;20003;-75
2023/12/10 02:29:35;;;;;;;;;;;;;;;;;;5091618;28;19966;-75
2023/12/10 02:32:00;;;;;;;;;;;;;;;;;;5092878;28;19912;-75
2023/12/10 02:34:25;;;;;;;;;;;;;;;;;;5091692;28;20430;-75
2023/12/10 02:36:50;;;;;;;;;;;;;;;;;;5091623;28;20007;-75
2023/12/10 02:39:16;;;;;;;;;;;;;;;;;;5091469;28;20000;-75
2023/12/10 02:41:41;;;;;;;;;;;;;;;;;;5093139;28;19915;-75
2023/12/10 02:44:06;;;;;;;;;;;;;;;;;;5092909;28;19908;-75
2023/12/10 02:46:31;;;;;;;;;;;;;;;;;;5092779;28;19916;-74
2023/12/10 02:48:56;;;;;;;;;;;;;;;;;;5092797;28;19908;-75
2023/12/10 02:51:21;;;;;;;;;;;;;;;;;;5092675;28;19908;-75
2023/12/10 02:53:46;;;;;;;;;;;;;;;;;;5092810;28;19951;-75
2023/12/10 02:56:11;;;;;;;;;;;;;;;;;;5091441;28;19958;-75
2023/12/10 02:58:37;;;;;;;;;;;;;;;;;;5092303;28;19950;-75
2023/12/10 03:01:02;;;;;;;;;;;;;;;;;;5092481;28;20149;-75
2023/12/10 03:03:27;;;;;;;;;;;;;;;;;;5091302;28;19908;-75
2023/12/10 03:05:52;;;;;;;;;;;;;;;;;;5092539;28;19960;-75
2023/12/10 03:08:17;;;;;;;;;;;;;;;;;;5091129;28;19912;-75
2023/12/10 03:10:42;;;;;;;;;;;;;;;;;;5092419;28;19908;-75
2023/12/10 03:13:07;;;;;;;;;;;;;;;;;;5091245;28;20045;-75
2023/12/10 03:15:32;;;;;;;;;;;;;;;;;;5092154;28;20378;-74
2023/12/10 03:17:57;;;;;;;;;;;;;;;;;;5092638;28;19908;-75
2023/12/10 03:20:23;;;;;;;;;;;;;;;;;;5092294;28;19915;-75
2023/12/10 03:22:48;;;;;;;;;;;;;;;;;;5092317;28;19909;-75
2023/12/10 03:25:13;;;;;;;;;;;;;;;;;;5092436;28;19915;-75
2023/12/10 03:27:38;;;;;;;;;;;;;;;;;;5092181;28;19994;-75
2023/12/10 03:30:04;;;;;;;;;;;;;;;;;;5092048;28;19958;-75
2023/12/10 03:32:29;;;;;;;;;;;;;;;;;;5092285;28;19919;-75
2023/12/10 03:34:54;;;;;;;;;;;;;;;;;;5093892;28;19916;-75
2023/12/10 03:37:19;;;;;;;;;;;;;;;;;;5095128;28;19934;-75
2023/12/10 03:39:44;;;;;;;;;;;;;;;;;;5096286;28;20389;-75
2023/12/10 03:42:09;;;;;;;;;;;;;;;;;;5096308;28;19908;-74
2023/12/10 03:44:34;;;;;;;;;;;;;;;;;;5096225;28;19998;-75
2023/12/10 03:47:03;;;;;;;;;;;;;;;;;;5096142;28;20007;-75
2023/12/10 03:49:28;;;;;;;;;;;;;;;;;;5096136;28;19916;-75
2023/12/10 03:51:53;;;;;;;;;;;;;;;;;;5095902;28;19920;-74
2023/12/10 03:54:19;;;;;;;;;;;;;;;;;;5096157;28;20293;-74
2023/12/10 03:56:44;;;;;;;;;;;;;;;;;;5094845;28;19912;-75
2023/12/10 03:59:09;;;;;;;;;;;;;;;;;;5096003;28;20007;-74
2023/12/10 04:01:34;;;;;;;;;;;;;;;;;;5095718;28;19916;-75
2023/12/10 04:03:59;;;;;;;;;;;;;;;;;;5096020;28;19961;-75
2023/12/10 04:06:24;;;;;;;;;;;;;;;;;;5094633;28;20036;-75
2023/12/10 04:08:49;;;;;;;;;;;;;;;;;;5095642;28;19908;-75
2023/12/10 04:11:14;;;;;;;;;;;;;;;;;;5095731;28;19919;-74
2023/12/10 04:13:40;;;;;;;;;;;;;;;;;;5095507;28;20328;-75
2023/12/10 04:16:05;;;;;;;;;;;;;;;;;;5094266;28;20444;-74
2023/12/10 04:18:30;;;;;;;;;;;;;;;;;;5095500;28;20006;-75
2023/12/10 04:20:55;;;;;;;;;;;;;;;;;;5094417;28;19956;-75
2023/12/10 04:23:21;;;;;;;;;;;;;;;;;;5095587;28;19916;-75
2023/12/10 04:25:46;;;;;;;;;;;;;;;;;;5095509;28;19991;-75
2023/12/10 04:28:11;;;;;;;;;;;;;;;;;;5095327;28;19915;-74
2023/12/10 04:30:36;;;;;;;;;;;;;;;;;;5095166;28;19908;-74
2023/12/10 04:33:02;;;;;;;;;;;;;;;;;;5095664;28;19934;-75
2023/12/10 04:35:29;;;;;;;;;;;;;;;;;;5095341;28;19912;-74
2023/12/10 04:37:54;;;;;;;;;;;;;;;;;;5086853;28;19912;-74
2023/12/10 04:40:19;;;;;;;;;;;;;;;;;;5093630;28;20392;-75
2023/12/10 04:42:44;;;;;;;;;;;;;;;;;;5095246;28;19951;-74
2023/12/10 04:45:09;;;;;;;;;;;;;;;;;;5093608;28;20018;-75
2023/12/10 04:47:34;;;;;;;;;;;;;;;;;;5095258;28;19943;-75
2023/12/10 04:50:02;;;;;;;;;;;;;;;;;;5093596;28;19908;-75
2023/12/10 04:52:27;;;;;;;;;;;;;;;;;;5094846;28;20376;-74
2023/12/10 04:54:52;;;;;;;;;;;;;;;;;;5094865;28;19920;-75
2023/12/10 04:57:17;;;;;;;;;;;;;;;;;;5094939;28;19969;-74
2023/12/10 04:59:42;;;;;;;;;;;;;;;;;;5094342;28;19909;-75
2023/12/10 05:02:08;;;;;;;;;;;;;;;;;;5094820;28;19991;-75
2023/12/10 05:04:33;;;;;;;;;;;;;;;;;;5093515;28;19908;-74
2023/12/10 05:06:58;;;;;;;;;;;;;;;;;;5094635;28;19908;-75
2023/12/10 05:09:23;;;;;;;;;;;;;;;;;;5093530;28;19915;-75
2023/12/10 05:11:49;;;;;;;;;;;;;;;;;;5093396;28;19915;-75
2023/12/10 05:14:14;;;;;;;;;;;;;;;;;;5094538;28;19915;-74
2023/12/10 05:16:39;;;;;;;;;;;;;;;;;;5094463;28;19912;-75
2023/12/10 05:19:04;;;;;;;;;;;;;;;;;;5094454;28;19912;-75
2023/12/10 05:21:30;;;;;;;;;;;;;;;;;;5094425;28;19908;-75
2023/12/10 05:23:55;;;;;;;;;;;;;;;;;;5093105;28;19915;-74
2023/12/10 05:26:20;;;;;;;;;;;;;;;;;;5093034;28;19908;-75
2023/12/10 05:28:46;;;;;;;;;;;;;;;;;;5092700;28;19908;-75
2023/12/10 05:31:11;;;;;;;;;;;;;;;;;;5094219;28;19912;-75
2023/12/10 05:33:36;;;;;;;;;;;;;;;;;;5094154;28;19908;-75
2023/12/10 05:36:02;;;;;;;;;;;;;;;;;;5092865;28;20285;-75
2023/12/10 05:38:27;;;;;;;;;;;;;;;;;;5094011;28;20308;-75
2023/12/10 05:40:52;;;;;;;;;;;;;;;;;;5094004;28;19954;-75
2023/12/10 05:43:17;;;;;;;;;;;;;;;;;;5094038;28;20045;-75
2023/12/10 05:45:42;;;;;;;;;;;;;;;;;;5093791;28;19916;-75
2023/12/10 05:48:08;;;;;;;;;;;;;;;;;;5094019;28;19909;-75
2023/12/10 05:50:33;;;;;;;;;;;;;;;;;;5093743;28;19908;-75
2023/12/10 05:52:58;;;;;;;;;;;;;;;;;;5085504;28;19916;-75
2023/12/10 05:55:23;;;;;;;;;;;;;;;;;;5093821;28;19916;-75
2023/12/10 05:57:48;;;;;;;;;;;;;;;;;;5093080;28;19962;-75
2023/12/10 06:00:13;;;;;;;;;;;;;;;;;;5092176;28;19921;-75
2023/12/10 06:02:38;;;;;;;;;;;;;;;;;;5092147;28;19908;-75
2023/12/10 06:05:03;;;;;;;;;;;;;;;;;;5093583;28;19954;-75
2023/12/10 06:07:29;;;;;;;;;;;;;;;;;;5093591;28;19908;-75
2023/12/10 06:09:54;;;;;;;;;;;;;;;;;;5093246;28;19981;-75
2023/12/10 06:12:19;;;;;;;;;;;;;;;;;;5092052;28;19950;-75
2023/12/10 06:14:44;;;;;;;;;;;;;;;;;;5093189;28;19916;-75
2023/12/10 06:17:12;;;;;;;;;;;;;;;;;;5092069;28;19915;-75
2023/12/10 06:19:37;;;;;;;;;;;;;;;;;;5091897;28;20007;-75
2023/12/10 06:22:02;;;;;;;;;;;;;;;;;;5093255;28;19952;-75
2023/12/10 06:24:28;;;;;;;;;;;;;;;;;;5093248;28;19912;-75
2023/12/10 06:26:53;;;;;;;;;;;;;;;;;;5091789;28;19915;-75
2023/12/10 06:29:18;;;;;;;;;;;;;;;;;;5091670;28;19996;-76
2023/12/10 06:31:43;;;;;;;;;;;;;;;;;;5091713;28;19915;-75
2023/12/10 06:34:08;;;;;;;;;;;;;;;;;;5093097;28;19915;-75
2023/12/10 06:36:35;;;;;;;;;;;;;;;;;;5092865;28;19911;-75
2023/12/10 06:39:00;;;;;;;;;;;;;;;;;;5092739;28;20331;-75
2023/12/10 06:41:25;;;;;;;;;;;;;;;;;;5091723;28;19908;-75
2023/12/10 06:43:50;;;;;;;;;;;;;;;;;;5092780;28;20321;-75
2023/12/10 06:46:17;;;;;;;;;;;;;;;;;;5092776;28;20362;-75
2023/12/10 06:48:42;;;;;;;;;;;;;;;;;;5091336;28;19942;-77
2023/12/10 06:51:07;;;;;;;;;;;;;;;;;;5092711;28;19912;-76
2023/12/10 06:53:32;;;;;;;;;;;;;;;;;;5091524;28;19912;-76
2023/12/10 06:55:58;;;;;;;;;;;;;;;;;;5091408;28;20290;-77
2023/12/10 06:58:23;;;;;;;;;;;;;;;;;;5091280;28;20366;-75
2023/12/10 07:00:48;;;;;;;;;;;;;;;;;;5091296;28;19962;-76
2023/12/10 07:03:13;;;;;;;;;;;;;;;;;;5092638;28;19935;-75
2023/12/10 07:05:38;;;;;;;;;;;;;;;;;;5092680;28;20375;-80
2023/12/10 07:08:04;;;;;;;;;;;;;;;;;;5093117;28;19912;-83
2023/12/10 07:10:29;;;;;;;;;;;;;;;;;;5082570;28;20005;-83
2023/12/10 07:12:54;;;;;;;;;;;;;;;;;;5091659;28;19908;-77
2023/12/10 07:15:19;;;;;;;;;;;;;;;;;;5092308;28;19938;-79
2023/12/10 07:17:44;;;;;;;;;;;;;;;;;;5091867;28;20284;-78
2023/12/10 07:20:09;;;;;;;;;;;;;;;;;;5091581;28;20365;-77
2023/12/10 07:22:34;;;;;;;;;;;;;;;;;;5081087;28;19916;-77
2023/12/10 07:24:59;;;;;;;;;;;;;;;;;;5088512;28;19912;-77
2023/12/10 07:27:25;;;;;;;;;;;;;;;;;;5083231;28;19916;-78
2023/12/10 07:29:50;;;;;;;;;;;;;;;;;;5088807;28;19940;-78
2023/12/10 07:32:15;;;;;;;;;;;;;;;;;;5086246;28;19920;-79
2023/12/10 07:34:40;;;;;;;;;;;;;;;;;;5093639;28;19912;-78
2023/12/10 07:37:05;;;;;;;;;;;;;;;;;;5094408;28;19908;-78
2023/12/10 07:39:30;;;;;;;;;;;;;;;;;;5093759;28;19908;-79
2023/12/10 07:41:56;;;;;;;;;;;;;;;;;;5091330;28;19908;-79
2023/12/10 07:44:22;;;;;;;;;;;;;;;;;;5091438;28;19908;-79
2023/12/10 07:46:48;;;;;;;;;;;;;;;;;;5093099;28;19908;-79
2023/12/10 07:49:13;;;;;;;;;;;;;;;;;;5091508;28;19931;-79
2023/12/10 07:51:38;;;;;;;;;;;;;;;;;;5092366;28;20285;-79
2023/12/10 07:54:03;;;;;;;;;;;;;;;;;;5092550;28;20434;-79
2023/12/10 07:56:28;;;;;;;;;;;;;;;;;;5091411;28;19912;-79
2023/12/10 07:58:53;;;;;;;;;;;;;;;;;;5090966;28;19918;-79
2023/12/10 08:01:18;;;;;;;;;;;;;;;;;;5092639;28;20002;-79
2023/12/10 08:03:43;;;;;;;;;;;;;;;;;;5092502;28;19912;-79
2023/12/10 08:06:09;;;;;;;;;;;;;;;;;;5092557;28;20354;-79
2023/12/10 08:08:34;;;;;;;;;;;;;;;;;;5091306;28;19912;-79
2023/12/10 08:10:59;;;;;;;;;;;;;;;;;;5091414;28;19931;-78
2023/12/10 08:13:24;;;;;;;;;;;;;;;;;;5092523;28;20362;-79
2023/12/10 08:15:49;;;;;;;;;;;;;;;;;;5091237;28;19957;-79
2023/12/10 08:18:14;;;;;;;;;;;;;;;;;;5090938;28;20305;-78
2023/12/10 08:20:39;;;;;;;;;;;;;;;;;;5092721;28;20401;-79
2023/12/10 08:23:05;;;;;;;;;;;;;;;;;;5095375;28;19912;-79
2023/12/10 08:25:30;;;;;;;;;;;;;;;;;;5095206;28;19908;-80
2023/12/10 08:27:55;;;;;;;;;;;;;;;;;;5096099;28;19908;-79
2023/12/10 08:30:20;;;;;;;;;;;;;;;;;;5094676;28;20346;-78
2023/12/10 08:32:45;;;;;;;;;;;;;;;;;;5095950;28;19904;-78
2023/12/10 08:35:10;;;;;;;;;;;;;;;;;;5094737;28;19943;-78
2023/12/10 08:37:35;;;;;;;;;;;;;;;;;;5094486;28;19954;-79
2023/12/10 08:40:01;;;;;;;;;;;;;;;;;;5095852;28;20388;-78
2023/12/10 08:42:27;;;;;;;;;;;;;;;;;;5096044;28;19908;-80
2023/12/10 08:44:52;;;;;;;;;;;;;;;;;;5095662;28;19908;-79
2023/12/10 08:47:17;;;;;;;;;;;;;;;;;;5095865;28;19919;-79
2023/12/10 08:49:43;;;;;;;;;;;;;;;;;;5095238;28;19915;-79
2023/12/10 08:52:09;;;;;;;;;;;;;;;;;;5095515;28;19916;-79
2023/12/10 08:54:34;;;;;;;;;;;;;;;;;;5095237;28;19942;-79
2023/12/10 08:56:59;;;;;;;;;;;;;;;;;;5095505;28;19908;-79
2023/12/10 08:59:25;;;;;;;;;;;;;;;;;;5093844;28;19919;-80
2023/12/10 09:01:50;;;;;;;;;;;;;;;;;;5093887;28;19912;-79
2023/12/10 09:04:15;;;;;;;;;;;;;;;;;;5093911;28;19915;-79
2023/12/10 09:06:40;;;;;;;;;;;;;;;;;;5094252;28;19947;-79
2023/12/10 09:09:05;;;;;;;;;;;;;;;;;;5093825;28;20007;-80
2023/12/10 09:11:30;;;;;;;;;;;;;;;;;;5094977;28;19947;-79
2023/12/10 09:13:55;;;;;;;;;;;;;;;;;;5093621;28;19908;-79
2023/12/10 09:16:21;;;;;;;;;;;;;;;;;;5095125;28;19912;-79
2023/12/10 09:18:47;;;;;;;;;;;;;;;;;;5093593;28;20293;-79
2023/12/10 09:21:12;;;;;;;;;;;;;;;;;;5094973;28;20375;-79
2023/12/10 09:23:37;;;;;;;;;;;;;;;;;;5093647;28;20361;-78
2023/12/10 09:26:02;;;;;;;;;;;;;;;;;;5095203;28;19908;-79
2023/12/10 09:28:27;;;;;;;;;;;;;;;;;;5094887;28;19908;-79
2023/12/10 09:30:52;;;;;;;;;;;;;;;;;;5093936;28;20403;-79
2023/12/10 09:33:17;;;;;;;;;;;;;;;;;;5092775;28;19920;-79
2023/12/10 09:35:43;;;;;;;;;;;;;;;;;;5095197;28;19912;-79
2023/12/10 09:38:08;;;;;;;;;;;;;;;;;;5086271;28;19908;-80
2023/12/10 09:40:33;;;;;;;;;;;;;;;;;;5093704;28;19908;-79
2023/12/10 09:42:58;;;;;;;;;;;;;;;;;;5094825;28;19915;-79
2023/12/10 09:45:24;;;;;;;;;;;;;;;;;;5094555;28;19912;-79
2023/12/10 09:47:50;;;;;;;;;;;;;;;;;;5094777;28;19915;-80
2023/12/10 09:50:15;;;;;;;;;;;;;;;;;;5093154;28;20344;-79
2023/12/10 09:52:40;;;;;;;;;;;;;;;;;;5094490;28;20333;-79
2023/12/10 09:55:05;;;;;;;;;;;;;;;;;;5093750;28;20461;-79
2023/12/10 09:57:31;;;;;;;;;;;;;;;;;;5093271;28;20393;-79
2023/12/10 09:59:56;;;;;;;;;;;;;;;;;;5094662;28;19908;-79
2023/12/10 10:02:21;;;;;;;;;;;;;;;;;;5093417;28;19908;-80
2023/12/10 10:04:46;;;;;;;;;;;;;;;;;;5100270;28;19930;-79
2023/12/10 10:07:13;;;;;;;;;;;;;;;;;;5102902;28;19909;-80
2023/12/10 10:09:39;;;;;;;;;;;;;;;;;;5102556;28;19923;-80
2023/12/10 10:12:04;;;;;;;;;;;;;;;;;;5103171;28;19912;-80
2023/12/10 10:14:29;;;;;;;;;;;;;;;;;;5102502;28;19919;-80
2023/12/10 10:16:55;;;;;;;;;;;;;;;;;;5101652;28;19912;-79
2023/12/10 10:19:20;;;;;;;;;;;;;;;;;;5101419;28;19915;-80
2023/12/10 10:21:45;;;;;;;;;;;;;;;;;;5100835;28;19920;-80
2023/12/10 10:24:10;;;;;;;;;;;;;;;;;;5101442;28;19908;-80
2023/12/10 10:26:35;;;;;;;;;;;;;;;;;;5100971;28;20270;-80
2023/12/10 10:29:00;;;;;;;;;;;;;;;;;;5101008;28;20251;-80
2023/12/10 10:31:25;;;;;;;;;;;;;;;;;;5099780;28;19966;-79
2023/12/10 10:33:50;;;;;;;;;;;;;;;;;;5094049;28;20396;-79
2023/12/10 10:36:15;;;;;;;;;;;;;;;;;;5092750;28;20353;-79
2023/12/10 10:38:41;;;;;;;;;;;;;;;;;;5094328;28;20450;-79
2023/12/10 10:41:06;;;;;;;;;;;;;;;;;;5098222;28;19953;-80
2023/12/10 10:43:31;;;;;;;;;;;;;;;;;;5100582;28;19916;-80
2023/12/10 10:45:56;;;;;;;;;;;;;;;;;;5101507;28;20285;-80
2023/12/10 10:48:21;;;;;;;;;;;;;;;;;;5100781;28;19909;-80
2023/12/10 10:50:46;;;;;;;;;;;;;;;;;;5099883;28;19908;-80
2023/12/10 10:53:11;;;;;;;;;;;;;;;;;;5100014;28;19916;-80
2023/12/10 10:55:36;;;;;;;;;;;;;;;;;;5101578;28;19919;-80
2023/12/10 10:58:01;;;;;;;;;;;;;;;;;;5102034;28;20025;-80
2023/12/10 11:00:27;;;;;;;;;;;;;;;;;;5100180;28;19908;-80
2023/12/10 11:02:52;;;;;;;;;;;;;;;;;;5100617;28;19950;-79
2023/12/10 11:05:17;;;;;;;;;;;;;;;;;;5101796;28;20418;-80
2023/12/10 11:07:42;;;;;;;;;;;;;;;;;;5101220;28;19972;-79
2023/12/10 11:10:07;;;;;;;;;;;;;;;;;;5100392;28;19991;-80
2023/12/10 11:12:32;;;;;;;;;;;;;;;;;;5100841;28;19991;-80
2023/12/10 11:14:57;;;;;;;;;;;;;;;;;;5100458;28;19959;-80
2023/12/10 11:17:22;;;;;;;;;;;;;;;;;;5101891;28;19912;-80
2023/12/10 11:19:48;;;;;;;;;;;;;;;;;;5099781;28;19908;-79
2023/12/10 11:22:14;;;;;;;;;;;;;;;;;;5100301;28;19982;-80
2023/12/10 11:24:39;;;;;;;;;;;;;;;;;;5101802;28;20278;-80
2023/12/10 11:27:05;;;;;;;;;;;;;;;;;;5101428;28;19923;-79
2023/12/10 11:29:30;;;;;;;;;;;;;;;;;;5099108;28;19999;-80
2023/12/10 11:31:55;;;;;;;;;;;;;;;;;;5100804;28;20005;-80
2023/12/10 11:34:20;;;;;;;;;;;;;;;;;;5099278;28;19934;-80
2023/12/10 11:36:45;;;;;;;;;;;;;;;;;;5099474;28;19916;-79
2023/12/10 11:39:10;;;;;;;;;;;;;;;;;;5100247;28;20311;-80
2023/12/10 11:41:38;;;;;;;;;;;;;;;;;;5098906;28;20340;-80
2023/12/10 11:44:03;;;;;;;;;;;;;;;;;;5100778;28;19919;-80
2023/12/10 11:46:28;;;;;;;;;;;;;;;;;;5098615;28;19908;-80
2023/12/10 11:48:54;;;;;;;;;;;;;;;;;;5099542;28;19916;-79
2023/12/10 11:51:19;;;;;;;;;;;;;;;;;;5099022;28;20399;-80
2023/12/10 11:53:44;;;;;;;;;;;;;;;;;;5099385;28;19913;-80
2023/12/10 11:56:09;;;;;;;;;;;;;;;;;;5101541;28;19912;-80
2023/12/10 11:58:34;;;;;;;;;;;;;;;;;;5104113;28;20289;-80
2023/12/10 12:00:59;;;;;;;;;;;;;;;;;;5102246;28;19965;-80
2023/12/10 12:03:24;;;;;;;;;;;;;;;;;;5103984;28;19912;-80
2023/12/10 12:05:50;;;;;;;;;;;;;;;;;;5102763;28;19908;-80
2023/12/10 12:08:15;;;;;;;;;;;;;;;;;;5102372;28;19915;-79
2023/12/10 12:10:40;;;;;;;;;;;;;;;;;;5103085;28;19912;-80
2023/12/10 12:13:05;;;;;;;;;;;;;;;;;;5102228;28;19965;-80
2023/12/10 12:15:30;;;;;;;;;;;;;;;;;;5103678;28;19919;-80
2023/12/10 12:17:55;;;;;;;;;;;;;;;;;;5102319;28;20381;-79
2023/12/10 12:20:28;;;;;;;;;;;;;;;;;;5101988;28;19915;-79
2023/12/10 12:22:53;;;;;;;;;;;;;;;;;;5101695;28;20389;-79
2023/12/10 12:25:18;;;;;;;;;;;;;;;;;;5102443;28;20370;-80
2023/12/10 12:27:43;;;;;;;;;;;;;;;;;;5101308;28;19908;-80
2023/12/10 12:30:08;;;;;;;;;;;;;;;;;;5101538;28;19976;-79
2023/12/10 12:32:34;;;;;;;;;;;;;;;;;;5102218;28;20016;-79
2023/12/10 12:34:59;;;;;;;;;;;;;;;;;;5102522;28;19919;-80
2023/12/10 12:37:24;;;;;;;;;;;;;;;;;;5101436;28;19908;-79
2023/12/10 12:39:49;;;;;;;;;;;;;;;;;;5101173;28;19908;-80
2023/12/10 12:42:14;;;;;;;;;;;;;;;;;;5102631;28;19984;-80
2023/12/10 12:44:39;;;;;;;;;;;;;;;;;;5101113;28;19934;-80
2023/12/10 12:47:04;;;;;;;;;;;;;;;;;;5101331;28;19908;-80
2023/12/10 12:49:30;;;;;;;;;;;;;;;;;;5102446;28;19908;-80
2023/12/10 12:51:55;;;;;;;;;;;;;;;;;;5101545;28;19987;-79
2023/12/10 12:54:20;;;;;;;;;;;;;;;;;;5102425;28;19908;-80
2023/12/10 12:56:45;;;;;;;;;;;;;;;;;;5100591;28;19919;-79
2023/12/10 12:59:13;;;;;;;;;;;;;;;;;;5100749;28;20383;-80
2023/12/10 13:01:38;;;;;;;;;;;;;;;;;;5102137;28;20419;-80
2023/12/10 13:04:03;;;;;;;;;;;;;;;;;;5102001;28;20365;-80
2023/12/10 13:06:28;;;;;;;;;;;;;;;;;;5101846;28;20438;-80
2023/12/10 13:08:53;;;;;;;;;;;;;;;;;;5101259;28;19961;-80
2023/12/10 13:11:18;;;;;;;;;;;;;;;;;;5100224;28;19999;-80
2023/12/10 13:13:43;;;;;;;;;;;;;;;;;;5099587;28;19923;-79
2023/12/10 13:16:09;;;;;;;;;;;;;;;;;;5101906;28;19925;-80
2023/12/10 13:18:34;;;;;;;;;;;;;;;;;;5099782;28;19912;-79
2023/12/10 13:20:59;;;;;;;;;;;;;;;;;;5099407;28;19934;-80
2023/12/10 13:23:24;;;;;;;;;;;;;;;;;;5099657;28;19912;-79
2023/12/10 13:25:49;;;;;;;;;;;;;;;;;;5098149;28;19908;-79
2023/12/10 13:28:14;;;;;;;;;;;;;;;;;;5095930;28;20365;-78
2023/12/10 13:30:40;;;;;;;;;;;;;;;;;;5096446;28;19908;-80
2023/12/10 13:33:05;;;;;;;;;;;;;;;;;;5095299;28;19912;-80
2023/12/10 13:35:30;;;;;;;;;;;;;;;;;;5095503;28;20277;-80
2023/12/10 13:37:55;;;;;;;;;;;;;;;;;;5096572;28;19935;-80
2023/12/10 13:40:20;;;;;;;;;;;;;;;;;;5088043;28;20362;-78
2023/12/10 13:42:45;;;;;;;;;;;;;;;;;;5096614;28;19954;-79
2023/12/10 13:45:10;;;;;;;;;;;;;;;;;;5097093;28;19909;-80
2023/12/10 13:47:35;;;;;;;;;;;;;;;;;;5095377;28;19916;-79
2023/12/10 13:50:02;;;;;;;;;;;;;;;;;;5096081;28;19908;-79
2023/12/10 13:52:28;;;;;;;;;;;;;;;;;;5096394;28;19920;-79
2023/12/10 13:54:53;;;;;;;;;;;;;;;;;;5095359;28;20014;-80
2023/12/10 13:57:18;;;;;;;;;;;;;;;;;;5095073;28;19908;-79
2023/12/10 13:59:43;;;;;;;;;;;;;;;;;;5096097;28;19908;-79
2023/12/10 14:02:08;;;;;;;;;;;;;;;;;;5095189;28;19908;-79
2023/12/10 14:04:34;;;;;;;;;;;;;;;;;;5096015;28;20355;-79
2023/12/10 14:06:59;;;;;;;;;;;;;;;;;;5097609;28;19914;-79
2023/12/10 14:09:24;;;;;;;;;;;;;;;;;;5098567;28;19951;-80
2023/12/10 14:11:49;;;;;;;;;;;;;;;;;;5098389;28;19915;-80
2023/12/10 14:14:14;;;;;;;;;;;;;;;;;;5099258;28;19915;-79
2023/12/10 14:16:39;;;;;;;;;;;;;;;;;;5097813;28;19912;-79
2023/12/10 14:19:04;;;;;;;;;;;;;;;;;;5097206;28;20625;-80
2023/12/10 14:21:30;;;;;;;;;;;;;;;;;;5098166;28;19975;-80
2023/12/10 14:23:55;;;;;;;;;;;;;;;;;;5097467;28;19912;-80
2023/12/10 14:26:20;;;;;;;;;;;;;;;;;;5097132;28;19915;-80
2023/12/10 14:28:45;;;;;;;;;;;;;;;;;;5097429;28;20265;-80
2023/12/10 14:31:10;;;;;;;;;;;;;;;;;;5099069;28;19930;-79
2023/12/10 14:33:36;;;;;;;;;;;;;;;;;;5097168;28;19912;-80
2023/12/10 14:36:01;;;;;;;;;;;;;;;;;;5097506;28;19916;-80
2023/12/10 14:38:26;;;;;;;;;;;;;;;;;;5097403;28;19908;-80
2023/12/10 14:40:51;;;;;;;;;;;;;;;;;;5097074;28;19908;-80
2023/12/10 14:43:16;;;;;;;;;;;;;;;;;;5098818;28;19908;-79
2023/12/10 14:45:42;;;;;;;;;;;;;;;;;;5098354;28;19908;-80
2023/12/10 14:48:07;;;;;;;;;;;;;;;;;;5096863;28;20373;-79
2023/12/10 14:50:32;;;;;;;;;;;;;;;;;;5096916;28;19908;-80
2023/12/10 14:52:57;;;;;;;;;;;;;;;;;;5097018;28;19923;-80
2023/12/10 14:55:22;;;;;;;;;;;;;;;;;;5098647;28;19912;-80
2023/12/10 14:57:49;;;;;;;;;;;;;;;;;;5097254;28;20215;-80
2023/12/10 15:00:14;;;;;;;;;;;;;;;;;;5097181;28;19908;-79
2023/12/10 15:02:39;;;;;;;;;;;;;;;;;;5096619;28;19961;-80
2023/12/10 15:05:04;;;;;;;;;;;;;;;;;;5096761;28;19915;-80
2023/12/10 15:07:30;;;;;;;;;;;;;;;;;;5098184;28;20013;-80
2023/12/10 15:09:55;;;;;;;;;;;;;;;;;;5096789;28;19912;-80
2023/12/10 15:12:20;;;;;;;;;;;;;;;;;;5098214;28;19931;-79
2023/12/10 15:14:45;;;;;;;;;;;;;;;;;;5097013;28;20105;-80
2023/12/10 15:17:11;;;;;;;;;;;;;;;;;;5096392;28;19947;-79
2023/12/10 15:19:42;;;;;;;;;;;;;;;;;;5097828;28;19915;-80
2023/12/10 15:22:07;;;;;;;;;;;;;;;;;;5098376;28;19909;-79
2023/12/10 15:24:32;;;;;;;;;;;;;;;;;;5096703;28;19916;-80
2023/12/10 15:26:57;;;;;;;;;;;;;;;;;;5096646;28;19908;-80
2023/12/10 15:29:23;;;;;;;;;;;;;;;;;;5088181;28;20002;-80
2023/12/10 15:31:48;;;;;;;;;;;;;;;;;;5096138;28;20389;-80
2023/12/10 15:34:13;;;;;;;;;;;;;;;;;;5096808;28;20002;-80
2023/12/10 15:36:39;;;;;;;;;;;;;;;;;;5096894;28;20353;-80
2023/12/10 15:39:04;;;;;;;;;;;;;;;;;;5096763;28;19930;-80
2023/12/10 15:41:29;;;;;;;;;;;;;;;;;;5097967;28;19921;-80
2023/12/10 15:43:54;;;;;;;;;;;;;;;;;;5096421;28;19914;-80
2023/12/10 15:46:19;;;;;;;;;;;;;;;;;;5097788;28;20281;-80
2023/12/10 15:48:45;;;;;;;;;;;;;;;;;;5097270;28;19957;-80
2023/12/10 15:51:10;;;;;;;;;;;;;;;;;;5097498;28;19908;-80
2023/12/10 15:53:35;;;;;;;;;;;;;;;;;;5097414;28;19975;-79
2023/12/10 15:56:00;;;;;;;;;;;;;;;;;;5095284;28;19912;-80
2023/12/10 15:58:25;;;;;;;;;;;;;;;;;;5097037;28;19915;-79
2023/12/10 16:00:53;;;;;;;;;;;;;;;;;;5097466;28;19908;-79
2023/12/10 16:03:18;;;;;;;;;;;;;;;;;;5095650;28;19909;-79
2023/12/10 16:05:43;;;;;;;;;;;;;;;;;;5097089;28;19909;-79
2023/12/10 16:08:08;;;;;;;;;;;;;;;;;;5097156;28;19915;-79
2023/12/10 16:10:34;;;;;;;;;;;;;;;;;;5095899;28;19908;-79
2023/12/10 16:12:59;;;;;;;;;;;;;;;;;;5095735;28;19908;-80
2023/12/10 16:15:24;;;;;;;;;;;;;;;;;;5096906;28;20010;-79
2023/12/10 16:17:49;;;;;;;;;;;;;;;;;;5097007;28;20411;-80
2023/12/10 16:20:14;;;;;;;;;;;;;;;;;;5094055;28;19908;-80
2023/12/10 16:22:39;;;;;;;;;;;;;;;;;;5093131;28;19908;-79
2023/12/10 16:25:04;;;;;;;;;;;;;;;;;;5094123;28;19915;-79
2023/12/10 16:27:29;;;;;;;;;;;;;;;;;;5092668;28;19920;-79
2023/12/10 16:29:54;;;;;;;;;;;;;;;;;;5092907;28;19933;-79
2023/12/10 16:32:20;;;;;;;;;;;;;;;;;;5094113;28;19991;-80